Time;durP1;ratioP1;P1;durP2;ratioP2;P2;SDS_P1;SDS_P2;PMS_P1;PMS_P2;Temp;Humidity;BMP_temperature;BMP_pressure;BME280_temperature;BME280_humidity;BME280_pressure;Samples;Min_cycle;Max_cycle;Signal;HPM_P1;HPM_P2
2021/07/13 00:00:55;;;;;;;12.88;7.78;;;;;;;;;;5110111;28;20520;-68
2021/07/13 00:03:21;;;;;;;10.15;6.60;;;;;;;;;;5110050;28;20031;-68
2021/07/13 00:05:48;;;;;;;11.15;6.30;;;;;;;;;;5109577;28;20084;-68
2021/07/13 00:08:15;;;;;;;9.23;6.13;;;;;;;;;;5110069;28;20016;-68
2021/07/13 00:10:43;;;;;;;9.90;6.55;;;;;;;;;;5110194;28;20349;-68
2021/07/13 00:13:09;;;;;;;9.05;6.45;;;;;;;;;;5109524;28;20018;-68
2021/07/13 00:16:19;;;;;;;13.13;7.38;;;;;;;;;;5110646;27;20392;-70
2021/07/13 00:18:45;;;;;;;8.55;6.57;;;;;;;;;;5110524;28;20023;-68
2021/07/13 00:21:11;;;;;;;10.15;6.90;;;;;;;;;;5108560;28;20019;-69
2021/07/13 00:23:38;;;;;;;9.57;6.57;;;;;;;;;;5110245;28;20035;-67
2021/07/13 00:26:05;;;;;;;9.70;7.13;;;;;;;;;;5110254;28;20426;-68
2021/07/13 00:28:31;;;;;;;11.10;7.53;;;;;;;;;;5109743;28;20476;-67
2021/07/13 00:30:58;;;;;;;9.07;6.70;;;;;;;;;;5108876;28;20131;-67
2021/07/13 00:33:24;;;;;;;11.45;8.13;;;;;;;;;;5109600;28;20433;-67
2021/07/13 00:35:50;;;;;;;11.68;8.10;;;;;;;;;;5110036;28;20034;-68
2021/07/13 00:38:17;;;;;;;12.52;7.97;;;;;;;;;;5110203;28;20488;-69
2021/07/13 00:40:43;;;;;;;11.05;7.50;;;;;;;;;;5108295;28;20028;-69
2021/07/13 00:43:09;;;;;;;10.65;7.43;;;;;;;;;;5109926;28;20025;-68
2021/07/13 00:45:35;;;;;;;12.30;7.45;;;;;;;;;;5109854;28;20383;-69
2021/07/13 00:48:25;;;;;;;13.55;7.47;;;;;;;;;;5110067;27;20393;-67
2021/07/13 00:50:52;;;;;;;12.25;8.07;;;;;;;;;;5110368;28;20437;-67
2021/07/13 00:53:18;;;;;;;11.57;8.35;;;;;;;;;;5110368;28;20016;-68
2021/07/13 00:55:44;;;;;;;13.02;8.77;;;;;;;;;;5109870;28;20028;-68
2021/07/13 00:58:10;;;;;;;13.15;8.60;;;;;;;;;;5109181;28;20052;-68
2021/07/13 01:00:36;;;;;;;12.68;8.18;;;;;;;;;;5110308;28;20130;-67
2021/07/13 01:03:04;;;;;;;11.30;7.90;;;;;;;;;;5109840;28;20023;-67
2021/07/13 01:05:32;;;;;;;12.02;8.75;;;;;;;;;;5110027;28;20023;-67
2021/07/13 01:07:59;;;;;;;12.30;7.45;;;;;;;;;;5108698;28;20096;-67
2021/07/13 01:10:44;;;;;;;10.70;7.53;;;;;;;;;;5109663;28;20020;-67
2021/07/13 01:13:28;;;;;;;11.02;6.38;;;;;;;;;;5110070;28;20028;-67
2021/07/13 01:15:59;;;;;;;11.40;6.72;;;;;;;;;;5109559;28;20054;-67
2021/07/13 01:19:13;;;;;;;11.25;8.48;;;;;;;;;;5110566;27;20927;-67
2021/07/13 01:21:40;;;;;;;10.48;7.40;;;;;;;;;;5126322;28;20036;-67
2021/07/13 01:24:24;;;;;;;10.90;6.40;;;;;;;;;;5109902;28;20030;-69
2021/07/13 01:27:04;;;;;;;10.02;7.07;;;;;;;;;;5110295;28;20028;-67
2021/07/13 01:29:31;;;;;;;10.68;7.32;;;;;;;;;;5125678;28;20024;-67
2021/07/13 01:31:58;;;;;;;10.73;7.32;;;;;;;;;;5110219;28;20038;-67
2021/07/13 01:34:26;;;;;;;10.50;6.78;;;;;;;;;;5110193;28;20377;-67
2021/07/13 01:36:55;;;;;;;9.55;6.63;;;;;;;;;;5109616;28;20031;-67
2021/07/13 01:39:23;;;;;;;10.00;7.13;;;;;;;;;;5110273;28;20027;-67
2021/07/13 01:41:50;;;;;;;10.65;7.30;;;;;;;;;;5110159;28;20024;-69
2021/07/13 01:44:17;;;;;;;10.63;7.30;;;;;;;;;;5109630;28;20472;-67
2021/07/13 01:46:43;;;;;;;11.15;6.95;;;;;;;;;;5109931;28;20027;-67
2021/07/13 01:49:11;;;;;;;10.73;7.43;;;;;;;;;;5109956;28;20102;-67
2021/07/13 01:51:38;;;;;;;12.02;6.85;;;;;;;;;;5125214;28;20028;-68
2021/07/13 01:54:09;;;;;;;11.10;7.65;;;;;;;;;;5109824;28;20016;-67
2021/07/13 01:56:36;;;;;;;11.95;7.65;;;;;;;;;;5125467;28;20077;-67
2021/07/13 01:59:04;;;;;;;11.13;7.40;;;;;;;;;;5109479;28;20417;-67
2021/07/13 02:01:31;;;;;;;11.45;8.15;;;;;;;;;;5109696;28;20035;-67
2021/07/13 02:03:58;;;;;;;11.23;7.97;;;;;;;;;;5109597;28;20020;-67
2021/07/13 02:06:25;;;;;;;12.80;7.50;;;;;;;;;;5109173;28;20024;-67
2021/07/13 02:09:02;;;;;;;9.70;7.10;;;;;;;;;;5109483;28;20024;-67
2021/07/13 02:11:28;;;;;;;12.10;7.82;;;;;;;;;;5109549;28;20038;-67
2021/07/13 02:13:55;;;;;;;10.65;6.43;;;;;;;;;;5124783;28;20052;-67
2021/07/13 02:16:21;;;;;;;9.50;6.65;;;;;;;;;;5109439;28;20468;-67
2021/07/13 02:18:47;;;;;;;13.25;7.70;;;;;;;;;;5124720;28;20077;-67
2021/07/13 02:21:14;;;;;;;10.15;7.00;;;;;;;;;;5109397;28;20027;-67
2021/07/13 02:23:41;;;;;;;12.30;7.43;;;;;;;;;;5109135;28;20073;-67
2021/07/13 02:26:08;;;;;;;8.50;6.13;;;;;;;;;;5108776;28;20024;-68
2021/07/13 02:28:40;;;;;;;12.63;7.80;;;;;;;;;;5105465;28;20020;-68
2021/07/13 02:31:11;;;;;;;10.75;7.07;;;;;;;;;;5095504;28;20046;-68
2021/07/13 02:33:46;;;;;;;14.57;7.63;;;;;;;;;;5095153;28;20020;-68
2021/07/13 02:40:08;;;;;;;10.00;6.85;;;;;;;;;;5110106;27;20492;-67
2021/07/13 02:42:35;;;;;;;10.18;6.32;;;;;;;;;;5110673;28;20027;-67
2021/07/13 02:45:02;;;;;;;12.13;7.72;;;;;;;;;;5109011;28;20024;-67
2021/07/13 02:47:30;;;;;;;10.52;6.97;;;;;;;;;;5109924;28;20046;-67
2021/07/13 02:51:38;;;;;;;10.13;6.95;;;;;;;;;;5069897;28;20468;-67
2021/07/13 02:54:06;;;;;;;9.35;7.55;;;;;;;;;;5069461;28;20032;-67
2021/07/13 02:56:32;;;;;;;11.02;7.38;;;;;;;;;;5069864;28;20524;-67
2021/07/13 02:58:58;;;;;;;12.02;7.57;;;;;;;;;;5069929;28;20039;-67
2021/07/13 03:01:25;;;;;;;12.85;7.13;;;;;;;;;;5069407;28;20496;-67
2021/07/13 03:03:51;;;;;;;15.60;7.50;;;;;;;;;;5069899;28;20381;-68
2021/07/13 03:06:19;;;;;;;10.65;7.90;;;;;;;;;;5069618;28;20456;-68
2021/07/13 03:08:46;;;;;;;10.43;7.45;;;;;;;;;;5069107;28;20021;-68
2021/07/13 03:11:12;;;;;;;14.18;7.32;;;;;;;;;;5068147;28;20033;-68
2021/07/13 03:13:39;;;;;;;10.68;7.88;;;;;;;;;;5069448;28;20028;-68
2021/07/13 03:16:05;;;;;;;11.77;9.07;;;;;;;;;;5067868;28;20098;-68
2021/07/13 03:20:15;;;;;;;11.32;7.32;;;;;;;;;;5110511;27;20320;-67
2021/07/13 03:22:43;;;;;;;11.48;8.30;;;;;;;;;;5109919;28;20024;-67
2021/07/13 03:28:03;;;;;;;9.82;6.90;;;;;;;;;;5110285;27;20388;-67
2021/07/13 03:30:30;;;;;;;10.32;7.47;;;;;;;;;;5110048;28;20023;-67
2021/07/13 03:34:18;;;;;;;11.23;7.32;;;;;;;;;;5110335;27;20396;-67
2021/07/13 03:36:44;;;;;;;11.98;8.48;;;;;;;;;;5110141;28;20093;-67
2021/07/13 03:39:12;;;;;;;11.30;6.90;;;;;;;;;;5110554;28;20100;-67
2021/07/13 03:41:38;;;;;;;10.38;7.70;;;;;;;;;;5110366;28;20035;-68
2021/07/13 03:44:06;;;;;;;12.35;7.50;;;;;;;;;;5108511;28;20024;-68
2021/07/13 03:46:36;;;;;;;10.52;7.28;;;;;;;;;;5108897;28;20016;-68
2021/07/13 03:49:04;;;;;;;13.23;7.15;;;;;;;;;;5110226;28;20048;-68
2021/07/13 03:51:52;;;;;;;9.32;6.57;;;;;;;;;;5069491;27;20395;-69
2021/07/13 03:54:19;;;;;;;12.60;8.15;;;;;;;;;;5069846;28;20433;-67
2021/07/13 03:56:46;;;;;;;11.48;7.45;;;;;;;;;;5069876;28;20029;-67
2021/07/13 04:00:34;;;;;;;12.38;7.93;;;;;;;;;;5111068;27;20513;-67
2021/07/13 04:03:00;;;;;;;12.27;7.47;;;;;;;;;;5110398;28;20073;-67
2021/07/13 04:05:28;;;;;;;10.38;7.47;;;;;;;;;;5109987;28;20024;-67
2021/07/13 04:08:39;;;;;;;11.95;7.43;;;;;;;;;;5110418;27;20453;-68
2021/07/13 04:13:06;;;;;;;15.95;7.28;;;;;;;;;;5110043;27;20396;-69
2021/07/13 04:15:33;;;;;;;10.88;6.53;;;;;;;;;;5110466;28;20023;-67
2021/07/13 04:17:59;;;;;;;10.18;6.68;;;;;;;;;;5110536;28;20024;-68
2021/07/13 04:20:25;;;;;;;12.18;6.90;;;;;;;;;;5108823;28;20103;-68
2021/07/13 04:22:52;;;;;;;11.55;6.97;;;;;;;;;;5109037;28;20557;-68
2021/07/13 04:26:47;;;;;;;11.80;7.88;;;;;;;;;;5069494;28;20413;-69
2021/07/13 04:29:14;;;;;;;11.60;7.40;;;;;;;;;;5068632;28;20115;-69
2021/07/13 04:31:40;;;;;;;10.48;6.88;;;;;;;;;;5069880;28;20035;-67
2021/07/13 04:34:12;;;;;;;12.57;7.30;;;;;;;;;;5069484;28;20105;-69
2021/07/13 04:36:39;;;;;;;13.50;6.75;;;;;;;;;;5069781;28;20021;-68
2021/07/13 04:39:09;;;;;;;10.63;7.05;;;;;;;;;;5069970;28;20023;-70
2021/07/13 04:41:35;;;;;;;10.00;7.47;;;;;;;;;;5069434;28;20029;-70
2021/07/13 04:44:02;;;;;;;11.15;6.80;;;;;;;;;;5069547;28;20020;-69
2021/07/13 04:46:59;;;;;;;11.73;7.32;;;;;;;;;;5110160;27;20117;-70
2021/07/13 04:50:43;;;;;;;14.73;10.70;;;;;;;;;;5110397;27;20466;-70
2021/07/13 04:53:09;;;;;;;13.20;10.05;;;;;;;;;;5110402;28;20020;-70
2021/07/13 04:56:19;;;;;;;10.32;7.53;;;;;;;;;;5069958;28;20419;-71
2021/07/13 05:00:37;;;;;;;12.05;7.93;;;;;;;;;;5110500;27;20718;-68
2021/07/13 05:03:03;;;;;;;11.00;7.78;;;;;;;;;;5108860;28;20032;-68
2021/07/13 05:07:39;;;;;;;10.13;7.07;;;;;;;;;;5110491;27;20455;-69
2021/07/13 05:10:06;;;;;;;10.07;6.30;;;;;;;;;;5110178;28;20020;-69
2021/07/13 05:12:32;;;;;;;17.38;7.22;;;;;;;;;;5110318;28;20044;-69
2021/07/13 05:14:58;;;;;;;9.05;6.43;;;;;;;;;;5110032;28;20065;-68
2021/07/13 05:17:24;;;;;;;15.43;7.65;;;;;;;;;;5109100;28;20023;-69
2021/07/13 05:19:50;;;;;;;11.23;7.78;;;;;;;;;;5109271;28;20027;-69
2021/07/13 05:22:19;;;;;;;9.65;6.85;;;;;;;;;;5109834;28;20111;-67
2021/07/13 05:26:17;;;;;;;14.20;7.25;;;;;;;;;;5110334;27;20968;-67
2021/07/13 05:28:44;;;;;;;11.15;7.03;;;;;;;;;;5110533;28;20081;-67
2021/07/13 05:31:10;;;;;;;8.52;6.05;;;;;;;;;;5108730;28;20049;-67
2021/07/13 05:34:03;;;;;;;11.25;7.13;;;;;;;;;;5069908;28;20460;-68
2021/07/13 05:36:29;;;;;;;10.35;7.18;;;;;;;;;;5068322;28;20055;-69
2021/07/13 05:40:52;;;;;;;9.90;7.00;;;;;;;;;;5110634;27;20381;-71
2021/07/13 05:43:18;;;;;;;12.10;7.43;;;;;;;;;;5110137;28;20111;-71
2021/07/13 05:45:47;;;;;;;10.57;7.20;;;;;;;;;;5110429;28;20026;-68
2021/07/13 05:48:13;;;;;;;9.95;6.65;;;;;;;;;;5110431;28;20024;-70
2021/07/13 05:50:40;;;;;;;11.95;8.07;;;;;;;;;;5110008;28;20433;-70
2021/07/13 05:54:17;;;;;;;12.50;7.97;;;;;;;;;;5110495;27;20932;-71
2021/07/13 05:56:43;;;;;;;12.93;7.95;;;;;;;;;;5110511;28;20020;-69
2021/07/13 05:59:09;;;;;;;10.43;7.15;;;;;;;;;;5110204;28;20076;-70
2021/07/13 06:01:35;;;;;;;10.90;7.10;;;;;;;;;;5110588;28;20051;-69
2021/07/13 06:04:02;;;;;;;12.50;7.63;;;;;;;;;;5109895;28;20058;-69
2021/07/13 06:06:28;;;;;;;13.40;8.10;;;;;;;;;;5110246;28;20028;-70
2021/07/13 06:08:54;;;;;;;12.02;8.57;;;;;;;;;;5110185;28;20040;-71
2021/07/13 06:11:20;;;;;;;11.80;8.32;;;;;;;;;;5109842;28;20375;-71
2021/07/13 06:14:49;;;;;;;10.82;7.53;;;;;;;;;;5110509;27;20405;-70
2021/07/13 06:17:15;;;;;;;12.55;8.65;;;;;;;;;;5110785;28;20039;-69
2021/07/13 06:19:41;;;;;;;9.48;7.25;;;;;;;;;;5110239;28;20069;-69
2021/07/13 06:22:07;;;;;;;11.45;7.50;;;;;;;;;;5110414;28;20020;-68
2021/07/13 06:24:34;;;;;;;10.05;7.38;;;;;;;;;;5110379;28;20043;-69
2021/07/13 06:29:10;;;;;;;10.73;8.10;;;;;;;;;;5108169;27;20421;-68
2021/07/13 06:31:36;;;;;;;10.88;8.02;;;;;;;;;;5110339;28;20410;-69
2021/07/13 06:34:02;;;;;;;10.13;7.63;;;;;;;;;;5108792;28;20325;-68
2021/07/13 06:36:28;;;;;;;11.45;7.25;;;;;;;;;;5108732;28;20110;-68
2021/07/13 06:38:55;;;;;;;11.35;7.25;;;;;;;;;;5109672;28;20383;-68
2021/07/13 06:41:21;;;;;;;11.68;7.00;;;;;;;;;;5108004;28;20507;-68
2021/07/13 06:43:47;;;;;;;10.13;6.93;;;;;;;;;;5109549;28;20468;-68
2021/07/13 06:46:13;;;;;;;9.05;6.57;;;;;;;;;;5109124;28;20429;-69
2021/07/13 06:48:39;;;;;;;8.30;6.30;;;;;;;;;;5108635;28;20028;-69
2021/07/13 06:51:06;;;;;;;8.43;6.05;;;;;;;;;;5110062;28;20027;-69
2021/07/13 06:55:39;;;;;;;10.52;7.25;;;;;;;;;;5110396;27;20923;-69
2021/07/13 06:58:05;;;;;;;9.25;6.65;;;;;;;;;;5108987;28;20058;-69
2021/07/13 07:00:31;;;;;;;9.70;6.85;;;;;;;;;;5110112;28;20027;-69
2021/07/13 07:02:57;;;;;;;11.38;8.38;;;;;;;;;;5108899;28;20024;-69
2021/07/13 07:05:24;;;;;;;13.95;7.90;;;;;;;;;;5110198;28;20099;-68
2021/07/13 07:07:51;;;;;;;11.48;7.53;;;;;;;;;;5109809;28;20016;-69
2021/07/13 07:10:18;;;;;;;16.35;7.40;;;;;;;;;;5110066;28;20107;-69
2021/07/13 07:12:45;;;;;;;13.85;6.72;;;;;;;;;;5109899;28;20028;-69
2021/07/13 07:15:12;;;;;;;8.98;6.28;;;;;;;;;;5109550;28;20106;-70
2021/07/13 07:17:44;;;;;;;8.45;5.43;;;;;;;;;;5110133;28;20027;-70
2021/07/13 07:20:11;;;;;;;8.60;5.97;;;;;;;;;;5110187;28;20031;-69
2021/07/13 07:22:37;;;;;;;14.75;6.72;;;;;;;;;;5108267;28;20019;-70
2021/07/13 07:25:03;;;;;;;11.38;5.75;;;;;;;;;;5108468;28;20020;-69
2021/07/13 07:27:30;;;;;;;8.90;5.82;;;;;;;;;;5108415;28;20540;-69
2021/07/13 07:29:56;;;;;;;8.57;5.60;;;;;;;;;;5109333;28;20036;-69
2021/07/13 07:32:22;;;;;;;8.70;5.95;;;;;;;;;;5109683;28;20016;-68
2021/07/13 07:34:48;;;;;;;9.77;6.47;;;;;;;;;;5109315;28;20032;-68
2021/07/13 07:37:14;;;;;;;11.77;6.10;;;;;;;;;;5108977;28;20090;-68
2021/07/13 07:39:41;;;;;;;8.60;6.25;;;;;;;;;;5108345;28;20027;-68
2021/07/13 07:42:08;;;;;;;7.78;4.65;;;;;;;;;;5104372;28;20055;-69
2021/07/13 07:44:34;;;;;;;7.45;4.80;;;;;;;;;;5096569;28;20099;-68
2021/07/13 07:47:01;;;;;;;8.23;5.28;;;;;;;;;;5108959;28;20106;-68
2021/07/13 07:49:28;;;;;;;7.78;4.88;;;;;;;;;;5107596;28;20387;-68
2021/07/13 07:51:54;;;;;;;7.50;5.18;;;;;;;;;;5108141;28;20022;-71
2021/07/13 07:54:20;;;;;;;8.05;5.25;;;;;;;;;;5109013;28;20079;-70
2021/07/13 07:56:47;;;;;;;9.27;5.50;;;;;;;;;;5106225;28;20020;-68
2021/07/13 07:59:13;;;;;;;8.23;5.05;;;;;;;;;;5107910;28;20028;-68
2021/07/13 08:01:39;;;;;;;11.95;7.43;;;;;;;;;;5109248;28;20494;-68
2021/07/13 08:04:05;;;;;;;7.85;4.47;;;;;;;;;;5108709;28;20429;-69
2021/07/13 08:06:31;;;;;;;8.15;5.70;;;;;;;;;;5098006;28;20027;-70
2021/07/13 08:08:58;;;;;;;6.75;4.75;;;;;;;;;;5095259;28;20024;-68
2021/07/13 08:11:24;;;;;;;8.65;5.05;;;;;;;;;;5094997;28;20464;-69
2021/07/13 08:13:51;;;;;;;8.15;5.55;;;;;;;;;;5095299;28;20035;-68
2021/07/13 08:16:17;;;;;;;10.13;5.47;;;;;;;;;;5095299;28;20464;-68
2021/07/13 08:18:43;;;;;;;12.02;4.82;;;;;;;;;;5094829;28;20020;-68
2021/07/13 08:21:11;;;;;;;7.90;5.03;;;;;;;;;;5095363;28;20561;-69
2021/07/13 08:23:37;;;;;;;8.43;5.82;;;;;;;;;;5095290;28;20520;-68
2021/07/13 08:26:03;;;;;;;7.93;4.78;;;;;;;;;;5094794;28;20089;-68
2021/07/13 08:28:29;;;;;;;7.70;4.82;;;;;;;;;;5095168;28;20086;-68
2021/07/13 08:30:55;;;;;;;9.05;5.55;;;;;;;;;;5093672;28;20028;-67
2021/07/13 08:33:21;;;;;;;10.60;5.28;;;;;;;;;;5094550;28;20016;-68
2021/07/13 08:35:48;;;;;;;8.63;5.70;;;;;;;;;;5094881;28;20472;-68
2021/07/13 08:38:14;;;;;;;7.78;4.80;;;;;;;;;;5092303;28;20219;-69
2021/07/13 08:40:43;;;;;;;10.48;5.47;;;;;;;;;;5093043;28;20028;-68
2021/07/13 08:43:09;;;;;;;8.18;5.68;;;;;;;;;;5094684;28;20035;-67
2021/07/13 08:45:35;;;;;;;8.40;5.28;;;;;;;;;;5094510;28;20142;-67
2021/07/13 08:48:01;;;;;;;7.75;4.25;;;;;;;;;;5094280;28;20024;-67
2021/07/13 08:50:27;;;;;;;8.60;4.78;;;;;;;;;;5094657;28;20103;-68
2021/07/13 08:52:54;;;;;;;8.20;5.75;;;;;;;;;;5094076;28;20024;-69
2021/07/13 08:55:20;;;;;;;9.68;5.18;;;;;;;;;;5094410;28;20555;-68
2021/07/13 08:57:46;;;;;;;12.73;5.00;;;;;;;;;;5094584;28;20090;-69
2021/07/13 09:00:15;;;;;;;7.30;5.05;;;;;;;;;;5094218;28;20113;-69
2021/07/13 09:02:59;;;;;;;9.48;5.60;;;;;;;;;;5094367;28;20012;-68
2021/07/13 09:05:26;;;;;;;6.43;4.47;;;;;;;;;;5094727;28;20469;-66
2021/07/13 09:07:52;;;;;;;7.85;4.68;;;;;;;;;;5093691;28;20054;-68
2021/07/13 09:10:19;;;;;;;6.95;5.05;;;;;;;;;;5092898;28;20078;-68
2021/07/13 09:12:48;;;;;;;8.55;5.03;;;;;;;;;;5090906;28;20024;-67
2021/07/13 09:15:17;;;;;;;7.35;4.68;;;;;;;;;;5091678;28;20027;-67
2021/07/13 09:17:45;;;;;;;8.07;5.03;;;;;;;;;;5091822;28;20017;-67
2021/07/13 09:20:11;;;;;;;7.72;5.43;;;;;;;;;;5094052;28;20024;-68
2021/07/13 09:22:52;;;;;;;10.00;5.20;;;;;;;;;;5093346;28;20020;-67
2021/07/13 09:25:32;;;;;;;7.45;4.78;;;;;;;;;;5092504;28;20236;-67
2021/07/13 09:28:08;;;;;;;9.30;5.38;;;;;;;;;;5093570;28;20376;-69
2021/07/13 09:30:35;;;;;;;7.53;4.55;;;;;;;;;;5093747;28;20024;-68
2021/07/13 09:33:21;;;;;;;12.15;5.20;;;;;;;;;;5093624;28;20093;-69
2021/07/13 09:36:17;;;;;;;7.03;4.82;;;;;;;;;;5093408;28;20121;-68
2021/07/13 09:38:46;;;;;;;7.50;4.93;;;;;;;;;;5075444;28;20039;-67
2021/07/13 09:41:19;;;;;;;8.45;4.97;;;;;;;;;;5093757;28;20020;-67
2021/07/13 09:43:47;;;;;;;8.30;5.15;;;;;;;;;;5093243;28;20099;-67
2021/07/13 09:46:24;;;;;;;8.85;5.90;;;;;;;;;;5092227;28;20024;-68
2021/07/13 09:49:25;;;;;;;7.65;5.20;;;;;;;;;;5093490;28;20024;-68
2021/07/13 09:51:56;;;;;;;9.03;5.63;;;;;;;;;;5031048;28;20026;-68
2021/07/13 09:54:28;;;;;;;7.65;5.15;;;;;;;;;;5082573;28;20036;-68
2021/07/13 09:56:54;;;;;;;7.10;5.22;;;;;;;;;;5091624;28;20062;-69
2021/07/13 09:59:21;;;;;;;8.40;6.03;;;;;;;;;;5092957;28;20024;-69
2021/07/13 10:01:48;;;;;;;7.78;5.43;;;;;;;;;;5092988;28;20123;-69
2021/07/13 10:04:14;;;;;;;7.50;5.75;;;;;;;;;;5092618;28;20021;-69
2021/07/13 10:06:41;;;;;;;7.07;4.80;;;;;;;;;;5091943;28;20031;-69
2021/07/13 10:09:13;;;;;;;11.55;6.10;;;;;;;;;;5093036;28;20024;-69
2021/07/13 10:11:40;;;;;;;9.35;5.40;;;;;;;;;;5092773;28;20499;-69
2021/07/13 10:14:07;;;;;;;7.95;5.38;;;;;;;;;;5092941;28;20028;-69
2021/07/13 10:16:34;;;;;;;8.48;5.85;;;;;;;;;;5093279;28;20097;-69
2021/07/13 10:19:01;;;;;;;7.63;6.00;;;;;;;;;;5092776;28;20020;-67
2021/07/13 10:21:29;;;;;;;10.63;5.45;;;;;;;;;;5091731;28;20059;-69
2021/07/13 10:23:56;;;;;;;7.85;5.18;;;;;;;;;;5091750;28;20023;-69
2021/07/13 10:26:40;;;;;;;8.80;5.53;;;;;;;;;;5092596;28;20028;-69
2021/07/13 10:29:25;;;;;;;7.88;5.05;;;;;;;;;;5092699;28;20055;-69
2021/07/13 10:31:51;;;;;;;9.32;5.47;;;;;;;;;;5092614;28;20024;-69
2021/07/13 10:34:37;;;;;;;8.90;5.80;;;;;;;;;;5092986;28;20035;-69
2021/07/13 10:37:22;;;;;;;6.75;5.00;;;;;;;;;;5092729;28;20093;-69
2021/07/13 10:39:48;;;;;;;8.77;5.32;;;;;;;;;;5092309;28;20035;-69
2021/07/13 10:42:33;;;;;;;8.70;6.00;;;;;;;;;;5092773;28;20070;-69
2021/07/13 10:45:12;;;;;;;9.73;6.05;;;;;;;;;;5091322;28;20028;-69
2021/07/13 10:47:55;;;;;;;8.48;5.80;;;;;;;;;;5092404;28;20020;-69
2021/07/13 10:50:28;;;;;;;10.30;5.50;;;;;;;;;;5091356;28;20111;-70
2021/07/13 10:52:55;;;;;;;7.93;6.30;;;;;;;;;;5092387;28;20024;-69
2021/07/13 10:55:33;;;;;;;8.13;5.72;;;;;;;;;;5092606;28;20059;-69
2021/07/13 10:58:12;;;;;;;8.45;6.18;;;;;;;;;;5092661;28;20107;-69
2021/07/13 11:00:50;;;;;;;8.15;5.95;;;;;;;;;;5092212;28;20472;-69
2021/07/13 11:03:28;;;;;;;8.73;6.03;;;;;;;;;;5092559;28;20024;-69
2021/07/13 11:05:55;;;;;;;7.82;5.80;;;;;;;;;;5092587;28;20028;-70
2021/07/13 11:11:08;;;;;;;8.15;4.90;;;;;;;;;;5092503;28;20059;-69
2021/07/13 11:13:35;;;;;;;6.55;4.53;;;;;;;;;;5092018;28;20028;-69
2021/07/13 11:16:01;;;;;;;9.50;5.43;;;;;;;;;;5092719;28;20491;-70
2021/07/13 11:18:28;;;;;;;7.20;5.53;;;;;;;;;;5092420;28;20530;-70
2021/07/13 11:20:54;;;;;;;8.80;5.35;;;;;;;;;;5091783;28;20476;-70
2021/07/13 11:23:27;;;;;;;10.43;5.70;;;;;;;;;;5092376;28;20028;-68
2021/07/13 11:26:06;;;;;;;8.48;5.10;;;;;;;;;;5092139;28;20108;-69
2021/07/13 11:28:33;;;;;;;8.00;4.75;;;;;;;;;;5091900;28;20548;-70
2021/07/13 11:30:59;;;;;;;7.85;4.22;;;;;;;;;;5092251;28;20028;-69
2021/07/13 11:33:29;;;;;;;5.72;3.63;;;;;;;;;;5091096;28;20023;-69
2021/07/13 11:36:01;;;;;;;6.32;4.32;;;;;;;;;;5092412;28;20028;-69
2021/07/13 11:38:27;;;;;;;;;;;;;;;;;;5092657;28;20065;-69
2021/07/13 11:41:10;;;;;;;7.18;4.07;;;;;;;;;;5093524;28;20287;-69
2021/07/13 11:43:36;;;;;;;6.45;4.10;;;;;;;;;;5095596;28;20016;-69
2021/07/13 11:46:13;;;;;;;6.63;4.38;;;;;;;;;;5095933;28;20016;-69
2021/07/13 11:48:39;;;;;;;5.57;4.13;;;;;;;;;;5095543;28;20027;-69
2021/07/13 11:51:08;;;;;;;7.55;4.25;;;;;;;;;;5095890;28;20027;-71
2021/07/13 11:53:34;;;;;;;5.38;4.13;;;;;;;;;;5095660;28;20511;-70
2021/07/13 11:56:01;;;;;;;7.00;4.45;;;;;;;;;;5095621;28;20087;-70
2021/07/13 11:58:30;;;;;;;8.93;4.78;;;;;;;;;;5095689;28;20099;-69
2021/07/13 12:01:16;;;;;;;6.50;4.00;;;;;;;;;;5095635;28;20502;-69
2021/07/13 12:03:42;;;;;;;5.60;3.75;;;;;;;;;;5095168;28;20097;-70
2021/07/13 12:06:09;;;;;;;7.35;4.18;;;;;;;;;;5094295;28;20025;-69
2021/07/13 12:08:36;;;;;;;7.35;4.63;;;;;;;;;;5095477;28;20024;-69
2021/07/13 12:11:02;;;;;;;9.18;4.53;;;;;;;;;;5095159;28;20021;-70
2021/07/13 12:13:28;;;;;;;6.95;4.10;;;;;;;;;;5095492;28;20115;-70
2021/07/13 12:16:13;;;;;;;6.07;4.15;;;;;;;;;;5095602;28;20021;-70
2021/07/13 12:18:39;;;;;;;5.85;4.25;;;;;;;;;;5095050;28;20127;-70
2021/07/13 12:21:05;;;;;;;6.57;4.40;;;;;;;;;;5095346;28;20026;-69
2021/07/13 12:23:32;;;;;;;7.43;4.70;;;;;;;;;;5093965;28;20021;-69
2021/07/13 12:26:16;;;;;;;5.93;4.03;;;;;;;;;;5094763;28;20028;-69
2021/07/13 12:29:01;;;;;;;6.00;3.85;;;;;;;;;;5094741;28;20423;-68
2021/07/13 12:31:28;;;;;;;6.03;4.60;;;;;;;;;;5094596;28;20024;-69
2021/07/13 12:33:54;;;;;;;6.95;4.32;;;;;;;;;;5095119;28;20032;-68
2021/07/13 12:36:30;;;;;;;7.60;4.30;;;;;;;;;;5095186;28;20095;-69
2021/07/13 12:38:57;;;;;;;6.28;4.30;;;;;;;;;;5094530;28;20020;-69
2021/07/13 12:41:29;;;;;;;6.47;4.00;;;;;;;;;;5094930;28;20028;-69
2021/07/13 12:43:55;;;;;;;6.03;4.07;;;;;;;;;;5094790;28;20020;-69
2021/07/13 12:46:28;;;;;;;5.43;4.00;;;;;;;;;;5094549;28;20021;-69
2021/07/13 12:48:55;;;;;;;5.70;3.97;;;;;;;;;;5094867;28;20493;-69
2021/07/13 12:51:28;;;;;;;6.15;4.05;;;;;;;;;;5094739;28;20054;-68
2021/07/13 12:54:23;;;;;;;6.90;4.35;;;;;;;;;;5094349;28;20075;-69
2021/07/13 12:56:50;;;;;;;5.20;3.63;;;;;;;;;;5081157;28;20042;-69
2021/07/13 12:59:18;;;;;;;7.13;3.92;;;;;;;;;;5094206;28;20028;-69
2021/07/13 13:01:44;;;;;;;7.85;4.03;;;;;;;;;;5094534;28;20020;-68
2021/07/13 13:04:15;;;;;;;7.75;4.90;;;;;;;;;;5094388;28;20020;-69
2021/07/13 13:06:45;;;;;;;6.75;3.75;;;;;;;;;;5093998;28;20020;-69
2021/07/13 13:09:12;;;;;;;7.63;5.68;;;;;;;;;;5093138;28;20075;-69
2021/07/13 13:11:40;;;;;;;6.60;4.45;;;;;;;;;;5094286;28;20020;-70
2021/07/13 13:14:15;;;;;;;6.43;4.00;;;;;;;;;;5092582;28;20153;-70
2021/07/13 13:16:41;;;;;;;6.65;3.75;;;;;;;;;;5094555;28;20027;-69
2021/07/13 13:19:08;;;;;;;6.75;4.80;;;;;;;;;;5094259;28;20028;-70
2021/07/13 13:21:38;;;;;;;5.32;3.88;;;;;;;;;;5093753;28;20027;-70
2021/07/13 13:24:08;;;;;;;4.88;3.65;;;;;;;;;;5094098;28;20027;-70
2021/07/13 13:26:34;;;;;;;6.93;4.30;;;;;;;;;;5094077;28;20074;-70
2021/07/13 13:29:00;;;;;;;5.97;3.78;;;;;;;;;;5093781;28;20110;-70
2021/07/13 13:31:26;;;;;;;5.82;3.83;;;;;;;;;;5092704;28;20043;-70
2021/07/13 13:33:53;;;;;;;5.85;3.67;;;;;;;;;;5093804;28;20361;-69
2021/07/13 13:36:27;;;;;;;6.60;4.20;;;;;;;;;;5093668;28;20404;-70
2021/07/13 13:41:20;;;;;;;6.82;3.40;;;;;;;;;;5093469;28;20028;-70
2021/07/13 13:43:46;;;;;;;6.68;3.70;;;;;;;;;;5093721;28;20030;-69
2021/07/13 13:46:12;;;;;;;5.70;4.38;;;;;;;;;;5093751;28;20035;-69
2021/07/13 13:48:39;;;;;;;5.63;3.70;;;;;;;;;;5093210;28;20032;-68
2021/07/13 13:51:06;;;;;;;5.32;3.25;;;;;;;;;;5093652;28;20085;-70
2021/07/13 13:53:34;;;;;;;4.72;3.40;;;;;;;;;;5091963;28;20040;-69
2021/07/13 13:56:00;;;;;;;7.03;3.60;;;;;;;;;;5093209;28;20119;-69
2021/07/13 13:58:27;;;;;;;4.72;3.28;;;;;;;;;;5092464;28;20027;-68
2021/07/13 14:00:53;;;;;;;4.78;3.47;;;;;;;;;;5093310;28;20028;-70
2021/07/13 14:03:19;;;;;;;5.43;3.60;;;;;;;;;;5092423;28;20031;-70
2021/07/13 14:05:45;;;;;;;5.30;3.72;;;;;;;;;;5093365;28;20166;-69
2021/07/13 14:08:11;;;;;;;5.15;4.07;;;;;;;;;;5093292;28;20099;-70
2021/07/13 14:10:38;;;;;;;7.72;4.18;;;;;;;;;;5092482;28;20016;-70
2021/07/13 14:13:04;;;;;;;6.90;3.88;;;;;;;;;;5093189;28;20392;-70
2021/07/13 14:15:30;;;;;;;5.95;3.53;;;;;;;;;;5093269;28;20082;-69
2021/07/13 14:17:57;;;;;;;6.90;4.20;;;;;;;;;;5092858;28;20024;-69
2021/07/13 14:20:23;;;;;;;4.75;3.38;;;;;;;;;;5093249;28;20365;-69
2021/07/13 14:22:50;;;;;;;7.22;3.92;;;;;;;;;;5093083;28;20104;-68
2021/07/13 14:25:17;;;;;;;6.20;4.07;;;;;;;;;;5092517;28;20078;-69
2021/07/13 14:27:44;;;;;;;8.88;3.92;;;;;;;;;;5093101;28;20050;-69
2021/07/13 14:30:13;;;;;;;7.45;3.50;;;;;;;;;;5092970;28;20024;-69
2021/07/13 14:32:39;;;;;;;5.97;3.60;;;;;;;;;;5092527;28;20024;-70
2021/07/13 14:35:06;;;;;;;6.57;3.70;;;;;;;;;;5092796;28;20040;-69
2021/07/13 14:37:32;;;;;;;6.07;3.20;;;;;;;;;;5092611;28;20450;-69
2021/07/13 14:39:58;;;;;;;5.28;3.60;;;;;;;;;;5093105;28;20028;-69
2021/07/13 14:42:27;;;;;;;5.00;3.20;;;;;;;;;;5092843;28;20017;-68
2021/07/13 14:44:53;;;;;;;4.53;3.15;;;;;;;;;;5092419;28;20020;-70
2021/07/13 14:47:20;;;;;;;4.53;2.95;;;;;;;;;;5091350;28;20479;-68
2021/07/13 14:49:48;;;;;;;5.63;3.63;;;;;;;;;;5092653;28;20105;-69
2021/07/13 14:52:15;;;;;;;6.85;3.40;;;;;;;;;;5091006;28;20020;-69
2021/07/13 14:54:42;;;;;;;5.97;3.88;;;;;;;;;;5092490;28;20051;-69
2021/07/13 14:57:08;;;;;;;4.50;3.47;;;;;;;;;;5092622;28;20021;-69
2021/07/13 14:59:35;;;;;;;5.53;3.80;;;;;;;;;;5092350;28;20052;-69
2021/07/13 15:02:01;;;;;;;4.93;3.25;;;;;;;;;;5092559;28;20024;-69
2021/07/13 15:04:27;;;;;;;4.65;3.47;;;;;;;;;;5091235;28;20086;-68
2021/07/13 15:06:53;;;;;;;10.60;3.67;;;;;;;;;;5092129;28;20104;-67
2021/07/13 15:09:19;;;;;;;5.47;3.17;;;;;;;;;;5092523;28;20527;-68
2021/07/13 15:11:47;;;;;;;5.63;4.20;;;;;;;;;;5092458;28;20457;-69
2021/07/13 15:14:13;;;;;;;6.85;3.30;;;;;;;;;;5092014;28;20436;-69
2021/07/13 15:16:40;;;;;;;8.15;2.95;;;;;;;;;;5095112;28;20028;-69
2021/07/13 15:19:06;;;;;;;5.88;3.50;;;;;;;;;;5096754;28;20035;-69
2021/07/13 15:21:32;;;;;;;4.40;2.95;;;;;;;;;;5094913;28;20058;-69
2021/07/13 15:23:58;;;;;;;5.05;3.42;;;;;;;;;;5096404;28;20503;-69
2021/07/13 15:26:24;;;;;;;5.47;3.58;;;;;;;;;;5096284;28;20035;-69